Time;durP1;ratioP1;P1;durP2;ratioP2;P2;SDS_P1;SDS_P2;PMS_P1;PMS_P2;Temp;Humidity;BMP_temperature;BMP_pressure;BME280_temperature;BME280_humidity;BME280_pressure;Samples;Min_cycle;Max_cycle;Signal;HPM_P1;HPM_P2
2022/02/13 00:00:15;;;;;;;8.13;2.97;;;1.60;99.90;;;;;;6098900;23;20032;-86
2022/02/13 00:02:42;;;;;;;9.23;4.50;;;1.60;99.90;;;;;;6100477;23;20029;-85
2022/02/13 00:05:08;;;;;;;8.38;3.38;;;1.50;99.90;;;;;;6099382;23;20013;-85
2022/02/13 00:07:34;;;;;;;6.53;3.65;;;1.60;99.90;;;;;;6098332;23;20021;-85
2022/02/13 00:10:00;;;;;;;7.38;3.55;;;1.50;99.90;;;;;;6099899;23;20009;-85
2022/02/13 00:12:25;;;;;;;7.75;2.92;;;1.50;99.90;;;;;;6098776;23;20005;-85
2022/02/13 00:14:53;;;;;;;5.53;3.13;;;1.50;99.90;;;;;;6098625;23;20112;-85
2022/02/13 00:17:19;;;;;;;11.13;4.43;;;1.60;99.90;;;;;;6124770;23;20016;-85
2022/02/13 00:19:45;;;;;;;3.13;1.98;;;1.50;99.90;;;;;;6099680;23;20048;-85
2022/02/13 00:22:11;;;;;;;12.30;3.92;;;1.50;99.90;;;;;;6107242;23;20025;-86
2022/02/13 00:24:37;;;;;;;10.13;4.63;;;1.50;99.90;;;;;;6123707;23;20017;-85
2022/02/13 00:27:03;;;;;;;9.75;4.57;;;1.50;99.90;;;;;;6099885;23;20028;-85
2022/02/13 00:29:28;;;;;;;5.95;3.40;;;1.50;99.90;;;;;;6101738;23;20501;-85
2022/02/13 00:31:54;;;;;;;7.45;3.63;;;1.50;99.90;;;;;;6124413;23;20036;-85
2022/02/13 00:34:19;;;;;;;9.30;3.85;;;1.60;99.90;;;;;;6102825;23;20477;-85
2022/02/13 00:36:45;;;;;;;7.18;3.53;;;1.50;99.90;;;;;;6100997;23;20393;-85
2022/02/13 00:39:10;;;;;;;8.82;3.78;;;1.50;99.90;;;;;;6125683;23;20124;-85
2022/02/13 00:41:36;;;;;;;9.55;5.45;;;1.50;99.90;;;;;;6100556;23;20032;-85
2022/02/13 00:44:01;;;;;;;8.30;4.15;;;1.50;99.90;;;;;;6101376;23;20088;-85
2022/02/13 00:46:27;;;;;;;8.63;3.78;;;1.50;99.90;;;;;;6100768;23;20032;-85
2022/02/13 00:49:14;;;;;;;5.85;3.30;;;1.50;99.90;;;;;;6126780;23;20009;-85
2022/02/13 00:51:39;;;;;;;8.23;3.53;;;1.50;99.90;;;;;;6125005;23;20017;-86
2022/02/13 00:54:05;;;;;;;7.40;3.78;;;1.40;99.90;;;;;;6102155;23;20023;-85
2022/02/13 00:56:30;;;;;;;7.30;3.55;;;1.50;99.90;;;;;;6100183;23;20036;-85
2022/02/13 00:58:56;;;;;;;4.80;2.92;;;1.40;99.90;;;;;;6087292;23;20040;-85
2022/02/13 01:01:22;;;;;;;7.43;3.30;;;1.40;99.90;;;;;;6126304;23;20008;-85
2022/02/13 01:03:47;;;;;;;6.32;3.40;;;1.40;99.90;;;;;;6100445;23;20108;-85
2022/02/13 01:06:14;;;;;;;10.10;4.28;;;1.50;99.90;;;;;;6101536;23;20083;-85
2022/02/13 01:08:39;;;;;;;8.18;3.70;;;1.50;99.90;;;;;;6087017;23;20020;-85
2022/02/13 01:11:05;;;;;;;7.53;3.67;;;1.50;99.90;;;;;;6122370;23;20017;-85
2022/02/13 01:13:31;;;;;;;9.95;3.45;;;1.50;99.90;;;;;;6101196;23;20348;-85
2022/02/13 01:15:57;;;;;;;10.23;2.78;;;1.60;99.90;;;;;;6101238;23;20425;-85
2022/02/13 01:18:22;;;;;;;6.47;3.70;;;1.60;99.90;;;;;;6101197;23;20013;-85
2022/02/13 01:20:48;;;;;;;7.97;3.30;;;1.50;99.90;;;;;;6098975;23;20017;-86
2022/02/13 01:23:14;;;;;;;4.47;2.42;;;1.40;99.90;;;;;;6101236;23;20005;-85
2022/02/13 01:25:39;;;;;;;7.88;3.97;;;1.50;99.90;;;;;;6101190;23;20048;-85
2022/02/13 01:28:05;;;;;;;9.35;4.28;;;1.50;99.90;;;;;;6101424;23;20452;-85
2022/02/13 01:30:32;;;;;;;8.25;4.10;;;1.40;99.90;;;;;;6085194;23;20039;-85
2022/02/13 01:32:58;;;;;;;6.68;3.67;;;1.40;99.90;;;;;;6102124;23;20477;-86
2022/02/13 01:35:24;;;;;;;6.18;2.42;;;1.50;99.90;;;;;;6101668;23;20450;-85
2022/02/13 01:37:49;;;;;;;7.97;4.60;;;1.40;99.90;;;;;;6100094;23;20016;-85
2022/02/13 01:40:16;;;;;;;7.45;3.45;;;1.40;99.90;;;;;;6099422;23;20492;-85
2022/02/13 01:42:41;;;;;;;9.02;5.05;;;1.40;99.90;;;;;;6099285;23;20300;-85
2022/02/13 01:45:07;;;;;;;6.68;2.78;;;1.40;99.90;;;;;;6100319;23;20009;-85
2022/02/13 01:47:34;;;;;;;5.10;2.40;;;1.40;99.90;;;;;;6100702;23;20052;-85
2022/02/13 01:50:03;;;;;;;12.93;4.55;;;1.30;99.90;;;;;;6099847;23;20035;-85
2022/02/13 01:52:28;;;;;;;4.95;2.42;;;1.30;99.90;;;;;;6088619;23;20012;-85
2022/02/13 01:54:54;;;;;;;7.88;3.83;;;1.30;99.90;;;;;;6125267;23;20017;-85
2022/02/13 01:57:19;;;;;;;7.95;3.53;;;1.30;99.90;;;;;;6101220;23;20013;-85
2022/02/13 01:59:45;;;;;;;7.22;4.15;;;1.30;99.90;;;;;;6085280;23;20017;-85
2022/02/13 02:02:10;;;;;;;8.40;4.93;;;1.30;99.90;;;;;;6100275;23;20017;-85
2022/02/13 02:04:36;;;;;;;8.20;2.53;;;1.30;99.90;;;;;;6096521;23;20005;-85
2022/02/13 02:07:11;;;;;;;8.48;3.92;;;1.30;99.90;;;;;;6085070;23;20096;-85
2022/02/13 02:09:36;;;;;;;8.30;3.58;;;1.20;99.90;;;;;;6129702;23;20009;-86
2022/02/13 02:12:05;;;;;;;6.80;3.95;;;1.20;99.90;;;;;;6094127;23;20012;-85
2022/02/13 02:14:31;;;;;;;6.78;3.45;;;1.20;99.90;;;;;;6100424;23;20469;-85
2022/02/13 02:16:56;;;;;;;6.15;2.55;;;1.20;99.90;;;;;;6089127;23;20049;-85
2022/02/13 02:19:22;;;;;;;10.35;3.88;;;1.20;99.90;;;;;;6096206;23;20326;-85
2022/02/13 02:21:47;;;;;;;9.27;3.47;;;1.30;99.90;;;;;;6099271;23;20434;-85
2022/02/13 02:24:28;;;;;;;8.85;3.70;;;1.30;99.90;;;;;;6111268;23;20017;-85
2022/02/13 02:26:53;;;;;;;7.55;3.78;;;1.30;99.90;;;;;;6102847;23;20012;-85
2022/02/13 02:29:20;;;;;;;4.68;3.03;;;1.20;99.90;;;;;;6084250;23;20013;-85
2022/02/13 02:31:50;;;;;;;8.77;4.75;;;1.30;99.90;;;;;;6124141;23;20079;-85
2022/02/13 02:34:16;;;;;;;9.10;5.22;;;1.20;99.90;;;;;;6108621;23;20132;-85
2022/02/13 02:36:51;;;;;;;7.40;3.53;;;1.10;99.90;;;;;;6122414;23;20005;-85
2022/02/13 02:39:30;;;;;;;7.65;3.67;;;1.10;99.90;;;;;;6089473;23;20025;-85
2022/02/13 02:41:55;;;;;;;8.05;4.78;;;1.10;99.90;;;;;;6099723;23;20017;-85
2022/02/13 02:44:21;;;;;;;10.55;3.67;;;1.00;99.90;;;;;;6124884;23;20013;-85
2022/02/13 02:46:46;;;;;;;7.00;3.75;;;1.00;99.90;;;;;;6099732;23;20013;-85
2022/02/13 02:49:12;;;;;;;8.02;3.08;;;1.00;99.90;;;;;;6100117;23;20016;-85
2022/02/13 02:51:37;;;;;;;7.18;3.58;;;1.00;99.90;;;;;;6098942;23;20024;-85
2022/02/13 02:54:03;;;;;;;6.10;3.13;;;1.00;99.90;;;;;;6100001;23;20016;-85
2022/02/13 02:56:29;;;;;;;5.70;3.75;;;1.00;99.90;;;;;;6100397;23;20012;-85
2022/02/13 02:58:55;;;;;;;9.25;3.40;;;0.90;99.90;;;;;;6100741;23;20111;-84
2022/02/13 03:01:20;;;;;;;5.95;3.50;;;1.00;99.90;;;;;;6099123;23;20398;-85
2022/02/13 03:03:46;;;;;;;11.13;5.25;;;0.90;99.90;;;;;;6100106;23;20033;-86
2022/02/13 03:06:11;;;;;;;8.50;2.85;;;1.00;99.90;;;;;;6098735;23;20009;-85
2022/02/13 03:08:37;;;;;;;8.27;3.80;;;1.00;99.90;;;;;;6124622;23;20060;-85
2022/02/13 03:11:02;;;;;;;7.07;3.55;;;0.90;99.90;;;;;;6098995;23;20067;-85
2022/02/13 03:13:28;;;;;;;4.53;2.30;;;1.00;99.90;;;;;;6099135;23;20374;-85
2022/02/13 03:15:54;;;;;;;9.32;3.20;;;1.00;99.90;;;;;;6100526;23;20013;-85
2022/02/13 03:18:19;;;;;;;4.68;2.92;;;1.00;99.90;;;;;;6099549;23;20059;-85
2022/02/13 03:20:46;;;;;;;6.68;3.67;;;0.90;99.90;;;;;;6099269;23;20394;-85
2022/02/13 03:23:12;;;;;;;8.32;3.50;;;1.00;99.90;;;;;;6099942;23;20357;-85
2022/02/13 03:25:38;;;;;;;6.80;3.50;;;0.90;99.90;;;;;;6100030;23;20083;-85
2022/02/13 03:28:03;;;;;;;3.92;2.80;;;0.90;99.90;;;;;;6100323;23;20389;-85
2022/02/13 03:30:29;;;;;;;5.30;2.78;;;0.80;99.90;;;;;;6099934;23;20080;-85
2022/02/13 03:32:54;;;;;;;9.00;3.90;;;0.80;99.90;;;;;;6100388;23;20024;-85
2022/02/13 03:35:20;;;;;;;5.72;3.50;;;0.80;99.90;;;;;;6098105;23;20571;-85
2022/02/13 03:37:45;;;;;;;6.53;3.03;;;0.80;99.90;;;;;;6100599;23;20092;-85
2022/02/13 03:40:12;;;;;;;10.68;3.85;;;0.90;99.90;;;;;;6098344;23;20028;-85
2022/02/13 03:42:37;;;;;;;14.32;3.65;;;0.90;99.90;;;;;;6119601;23;20112;-85
2022/02/13 03:45:03;;;;;;;6.40;3.78;;;0.80;99.90;;;;;;6100067;23;20391;-85
2022/02/13 03:47:28;;;;;;;8.18;3.70;;;0.80;99.90;;;;;;6100137;23;20012;-85
2022/02/13 03:49:54;;;;;;;9.90;3.60;;;0.90;99.90;;;;;;6099643;23;20433;-85
2022/02/13 03:52:20;;;;;;;9.00;4.20;;;0.80;99.90;;;;;;6099046;23;20013;-85
2022/02/13 03:54:46;;;;;;;8.27;3.67;;;0.80;99.90;;;;;;6100108;23;20020;-85
2022/02/13 03:57:11;;;;;;;10.30;4.00;;;0.80;99.90;;;;;;6098131;23;20013;-85
2022/02/13 03:59:37;;;;;;;8.80;3.92;;;0.90;99.90;;;;;;6123883;23;20457;-85
2022/02/13 04:02:03;;;;;;;10.82;3.60;;;0.80;99.90;;;;;;6099063;23;20008;-85
2022/02/13 04:04:28;;;;;;;6.50;3.40;;;0.70;99.90;;;;;;6126399;23;20024;-85
2022/02/13 04:06:54;;;;;;;9.25;3.78;;;0.70;99.90;;;;;;6101928;23;20020;-85
2022/02/13 04:09:19;;;;;;;5.57;3.05;;;0.70;99.90;;;;;;6100361;23;20358;-85
2022/02/13 04:11:45;;;;;;;3.92;2.30;;;0.70;99.90;;;;;;6123945;23;20462;-86
2022/02/13 04:14:10;;;;;;;10.50;3.72;;;0.70;99.90;;;;;;6101669;23;20044;-85
2022/02/13 04:16:36;;;;;;;6.95;3.78;;;0.80;99.90;;;;;;6102452;23;20386;-85
2022/02/13 04:19:04;;;;;;;8.48;3.80;;;0.80;99.90;;;;;;6099746;23;20048;-85
2022/02/13 04:21:30;;;;;;;2.55;1.92;;;0.80;99.90;;;;;;6125940;23;20458;-86
2022/02/13 04:23:56;;;;;;;6.63;3.15;;;0.80;99.90;;;;;;6101320;23;20025;-85
2022/02/13 04:26:21;;;;;;;8.55;3.70;;;0.80;99.90;;;;;;6125827;23;20358;-86
2022/02/13 04:28:47;;;;;;;6.25;2.97;;;0.70;99.90;;;;;;6101049;23;20505;-86
2022/02/13 04:31:12;;;;;;;6.82;3.00;;;0.60;99.90;;;;;;6101031;23;20033;-85
2022/02/13 04:33:38;;;;;;;4.78;2.70;;;0.60;99.90;;;;;;6101408;23;20092;-85
2022/02/13 04:36:03;;;;;;;6.18;3.03;;;0.60;99.90;;;;;;6101367;23;20469;-85
2022/02/13 04:38:29;;;;;;;5.25;2.75;;;0.60;99.90;;;;;;6102296;23;20017;-86
2022/02/13 04:40:55;;;;;;;6.45;3.50;;;0.60;99.90;;;;;;6099179;23;20092;-86
2022/02/13 04:43:20;;;;;;;7.20;3.20;;;0.60;99.90;;;;;;6100890;23;20064;-85
2022/02/13 04:45:46;;;;;;;5.50;3.13;;;0.60;99.90;;;;;;6101280;23;20028;-85
2022/02/13 04:48:11;;;;;;;12.65;4.00;;;0.50;99.90;;;;;;6101078;23;20434;-86
2022/02/13 04:50:37;;;;;;;5.82;2.50;;;0.60;99.90;;;;;;6096053;23;20005;-86
2022/02/13 04:53:02;;;;;;;3.08;1.52;;;0.70;99.90;;;;;;6101069;23;20481;-85
2022/02/13 04:55:28;;;;;;;4.22;2.58;;;0.70;99.90;;;;;;6102606;23;20009;-86
2022/02/13 04:57:54;;;;;;;6.07;1.75;;;0.60;99.90;;;;;;6099688;23;20020;-86
2022/02/13 05:00:19;;;;;;;8.38;3.08;;;0.50;99.90;;;;;;6100115;23;20296;-86
2022/02/13 05:02:45;;;;;;;7.15;3.10;;;0.60;99.90;;;;;;6125994;23;20080;-86
2022/02/13 05:05:11;;;;;;;4.82;2.58;;;0.60;99.90;;;;;;6099790;23;20021;-86
2022/02/13 05:07:37;;;;;;;6.38;2.78;;;0.60;99.90;;;;;;6125533;23;20092;-86
2022/02/13 05:10:03;;;;;;;7.63;2.65;;;0.50;99.90;;;;;;6100031;23;20060;-86
2022/02/13 05:12:28;;;;;;;7.10;3.42;;;0.60;99.90;;;;;;6099168;23;20345;-86
2022/02/13 05:14:54;;;;;;;9.52;4.07;;;0.60;99.90;;;;;;6100186;23;20017;-86
2022/02/13 05:17:21;;;;;;;5.22;3.33;;;0.60;99.90;;;;;;6125628;23;20016;-86
2022/02/13 05:19:49;;;;;;;6.97;3.13;;;0.60;99.90;;;;;;6099289;23;20005;-85
2022/02/13 05:22:16;;;;;;;10.23;3.10;;;0.50;99.90;;;;;;6100646;23;20313;-86
2022/02/13 05:24:41;;;;;;;8.60;3.92;;;0.50;99.90;;;;;;6100451;23;20037;-86
2022/02/13 05:27:07;;;;;;;5.55;3.10;;;0.50;99.90;;;;;;6098601;23;20036;-86
2022/02/13 05:29:33;;;;;;;7.18;3.80;;;0.50;99.90;;;;;;6100756;23;20020;-86
2022/02/13 05:31:58;;;;;;;9.25;4.28;;;0.50;99.90;;;;;;6100358;23;20013;-86
2022/02/13 05:34:24;;;;;;;12.60;4.72;;;0.50;99.90;;;;;;6122435;23;20017;-86
2022/02/13 05:36:50;;;;;;;7.28;3.13;;;0.50;99.90;;;;;;6100577;23;20098;-86
2022/02/13 05:39:15;;;;;;;7.53;3.67;;;0.50;99.90;;;;;;6085915;23;20557;-85
2022/02/13 05:41:41;;;;;;;5.45;3.47;;;0.50;99.90;;;;;;6099592;23;20401;-86
2022/02/13 05:44:07;;;;;;;9.55;4.70;;;0.60;99.90;;;;;;6100724;23;20079;-85
2022/02/13 05:46:32;;;;;;;8.65;3.90;;;0.50;99.90;;;;;;6101322;23;20024;-86
2022/02/13 05:48:58;;;;;;;10.23;4.22;;;0.40;99.90;;;;;;6099308;23;20266;-86
2022/02/13 05:51:26;;;;;;;7.28;3.92;;;0.40;99.90;;;;;;6124466;23;20088;-87
2022/02/13 05:53:52;;;;;;;5.43;3.67;;;0.40;99.90;;;;;;6099141;23;20020;-86
2022/02/13 05:56:17;;;;;;;10.07;3.80;;;0.30;99.90;;;;;;6096728;23;20092;-87
2022/02/13 05:58:43;;;;;;;4.28;3.33;;;0.40;99.90;;;;;;6100181;23;20052;-86
2022/02/13 06:01:09;;;;;;;6.80;3.67;;;0.30;99.90;;;;;;6100112;23;20021;-86
2022/02/13 06:03:35;;;;;;;6.53;3.03;;;0.30;99.90;;;;;;6100566;23;20013;-86
2022/02/13 06:06:01;;;;;;;4.40;2.55;;;0.30;99.90;;;;;;6100763;23;20056;-86
2022/02/13 06:08:27;;;;;;;9.88;2.53;;;0.30;99.90;;;;;;6100367;23;20091;-86
2022/02/13 06:10:53;;;;;;;5.15;2.20;;;0.30;99.90;;;;;;6125027;23;20092;-87
2022/02/13 06:13:18;;;;;;;5.40;2.38;;;0.30;99.90;;;;;;6099691;23;20131;-87
2022/02/13 06:15:44;;;;;;;5.10;3.22;;;0.30;99.90;;;;;;6100676;23;20056;-87
2022/02/13 06:18:09;;;;;;;6.65;3.53;;;0.20;99.90;;;;;;6101510;23;20012;-86
2022/02/13 06:20:36;;;;;;;5.60;2.08;;;0.20;99.90;;;;;;6124291;23;20012;-86
2022/02/13 06:23:01;;;;;;;6.25;4.30;;;0.20;99.90;;;;;;6125565;23;20013;-87
2022/02/13 06:25:27;;;;;;;4.88;3.55;;;0.20;99.90;;;;;;6100825;23;20009;-87
2022/02/13 06:27:52;;;;;;;8.65;3.67;;;0.30;99.90;;;;;;6100452;23;20004;-87
2022/02/13 06:30:18;;;;;;;6.05;2.95;;;0.30;99.90;;;;;;6100935;23;20017;-87
2022/02/13 06:32:43;;;;;;;7.93;3.88;;;0.30;99.90;;;;;;6100743;23;20001;-86
2022/02/13 06:35:09;;;;;;;4.95;2.97;;;0.30;99.90;;;;;;6123880;23;20047;-87
2022/02/13 06:37:36;;;;;;;9.13;3.65;;;0.20;99.90;;;;;;6103780;23;20009;-87
2022/02/13 06:40:02;;;;;;;5.97;3.20;;;0.20;99.90;;;;;;6123506;23;20519;-86
2022/02/13 06:42:27;;;;;;;7.47;4.10;;;0.30;99.90;;;;;;6099986;23;20032;-87
2022/02/13 06:44:53;;;;;;;7.13;3.67;;;0.30;99.90;;;;;;6100071;23;20009;-86
2022/02/13 06:47:18;;;;;;;5.15;2.67;;;0.30;99.90;;;;;;6098562;23;20072;-87
2022/02/13 06:49:44;;;;;;;6.35;3.75;;;0.30;99.90;;;;;;6124971;23;20080;-86
2022/02/13 06:52:09;;;;;;;5.50;2.65;;;0.40;99.90;;;;;;6100624;23;20013;-86
2022/02/13 06:54:35;;;;;;;5.65;3.55;;;0.30;99.90;;;;;;6101239;23;20013;-87
2022/02/13 06:57:00;;;;;;;7.10;3.83;;;0.30;99.90;;;;;;6099426;23;20554;-87
2022/02/13 06:59:26;;;;;;;12.05;4.25;;;0.30;99.90;;;;;;6099943;23;20013;-86
2022/02/13 07:01:52;;;;;;;3.08;2.25;;;0.30;99.90;;;;;;6099561;23;20438;-87
2022/02/13 07:04:17;;;;;;;9.52;4.35;;;0.20;99.90;;;;;;6123763;23;20063;-86
2022/02/13 07:06:43;;;;;;;9.20;4.32;;;0.30;99.90;;;;;;6099691;23;20021;-86
2022/02/13 07:09:08;;;;;;;6.68;3.88;;;0.30;99.90;;;;;;6098658;23;20009;-86
2022/02/13 07:11:34;;;;;;;8.18;2.80;;;0.30;99.90;;;;;;6099031;23;20033;-85
2022/02/13 07:14:00;;;;;;;6.00;3.65;;;0.30;99.90;;;;;;6098423;23;20025;-86
2022/02/13 07:16:51;;;;;;;5.82;2.92;;;0.40;99.90;;;;;;6102731;23;20009;-86
2022/02/13 07:20:08;;;;;;;8.50;3.72;;;0.40;99.90;;;;;;6081186;23;20010;-86
2022/02/13 07:23:14;;;;;;;8.15;3.63;;;0.50;99.90;;;;;;6088384;23;20020;-86
2022/02/13 07:25:39;;;;;;;5.35;3.15;;;0.60;99.90;;;;;;6112577;23;20474;-86
2022/02/13 07:31:05;;;;;;;8.15;4.00;;;0.60;99.90;;;;;;6071931;23;20449;-86
2022/02/13 07:33:40;;;;;;;6.03;3.15;;;0.70;99.90;;;;;;6061812;23;20091;-86
2022/02/13 07:36:05;;;;;;;7.10;3.20;;;0.70;99.90;;;;;;6076504;23;20037;-88
2022/02/13 07:38:36;;;;;;;5.45;2.80;;;0.70;99.90;;;;;;6088012;23;20024;-87
2022/02/13 07:41:01;;;;;;;4.93;2.72;;;0.90;99.90;;;;;;6096406;23;20394;-87
2022/02/13 07:43:27;;;;;;;7.45;3.35;;;1.00;99.90;;;;;;6101203;23;20016;-86
2022/02/13 07:45:52;;;;;;;5.32;2.50;;;1.00;99.90;;;;;;6086592;23;20005;-87
2022/02/13 07:48:18;;;;;;;7.65;3.80;;;1.10;99.90;;;;;;6088015;23;20016;-87
2022/02/13 07:50:43;;;;;;;6.32;3.85;;;1.20;99.90;;;;;;6086356;23;20415;-86
2022/02/13 07:53:09;;;;;;;3.60;2.60;;;1.30;99.90;;;;;;6125502;23;20009;-87
2022/02/13 07:55:34;;;;;;;3.80;2.38;;;1.40;99.90;;;;;;6102599;23;20046;-87
2022/02/13 07:58:00;;;;;;;6.07;3.28;;;1.50;99.90;;;;;;6102631;23;20010;-87
2022/02/13 08:00:25;;;;;;;7.40;3.65;;;1.60;99.90;;;;;;6101185;23;20009;-87
2022/02/13 08:02:51;;;;;;;6.28;3.45;;;1.60;99.90;;;;;;6101846;23;20036;-87
2022/02/13 08:05:18;;;;;;;5.32;2.75;;;1.80;99.90;;;;;;6098801;23;20024;-87
2022/02/13 08:07:47;;;;;;;5.85;3.05;;;2.00;99.90;;;;;;6102282;23;20040;-86
2022/02/13 08:10:15;;;;;;;6.55;3.80;;;2.00;99.90;;;;;;6099196;23;20013;-87
2022/02/13 08:12:42;;;;;;;9.50;3.33;;;2.20;99.90;;;;;;6088130;23;20064;-87
2022/02/13 08:15:08;;;;;;;6.50;4.05;;;2.20;99.90;;;;;;6125870;23;20063;-88
2022/02/13 08:17:34;;;;;;;7.10;3.78;;;2.30;99.90;;;;;;6102167;23;20698;-88
2022/02/13 08:20:00;;;;;;;7.32;2.83;;;2.40;99.90;;;;;;6099029;23;20024;-87
2022/02/13 08:22:26;;;;;;;6.70;3.72;;;2.50;99.90;;;;;;6101531;23;20072;-88
2022/02/13 08:24:52;;;;;;;4.95;3.42;;;2.70;99.90;;;;;;6101668;23;20016;-88
2022/02/13 08:27:17;;;;;;;4.18;3.05;;;2.80;99.90;;;;;;6087661;23;20016;-88
2022/02/13 08:29:51;;;;;;;5.75;3.58;;;2.90;99.90;;;;;;6101287;23;20013;-88
2022/02/13 08:32:29;;;;;;;6.25;3.65;;;2.90;99.90;;;;;;6111515;23;20128;-88
2022/02/13 08:34:54;;;;;;;3.92;2.20;;;3.10;99.90;;;;;;6127503;23;20024;-88
2022/02/13 08:37:22;;;;;;;6.90;4.05;;;3.20;99.90;;;;;;6101576;23;20013;-88
2022/02/13 08:39:48;;;;;;;6.45;3.35;;;3.20;99.90;;;;;;6101039;23;20335;-88
2022/02/13 08:42:14;;;;;;;7.88;3.95;;;3.50;99.90;;;;;;6099508;23;20017;-89
2022/02/13 08:44:41;;;;;;;5.07;3.38;;;3.70;99.90;;;;;;6102529;23;20071;-88
2022/02/13 08:47:12;;;;;;;5.72;3.30;;;3.70;99.90;;;;;;6078200;23;20005;-88
2022/02/13 08:49:38;;;;;;;5.38;3.33;;;3.60;99.90;;;;;;6081759;23;20013;-89
2022/02/13 08:52:05;;;;;;;7.15;3.42;;;3.80;99.90;;;;;;6100176;23;20099;-88
2022/02/13 08:54:30;;;;;;;7.35;3.80;;;3.90;99.90;;;;;;6086966;23;20496;-89
2022/02/13 08:57:11;;;;;;;6.45;3.10;;;4.10;99.90;;;;;;6123608;23;20017;-89
2022/02/13 08:59:39;;;;;;;7.22;3.00;;;4.20;99.90;;;;;;6090013;23;20084;-89
2022/02/13 09:02:05;;;;;;;5.15;2.47;;;4.20;99.90;;;;;;6066114;23;20009;-89
2022/02/13 09:04:50;;;;;;;5.68;3.40;;;4.20;99.90;;;;;;6117320;23;20477;-89
2022/02/13 09:07:16;;;;;;;6.20;2.95;;;4.20;99.90;;;;;;6126182;23;20013;-90
2022/02/13 09:09:44;;;;;;;5.18;2.88;;;4.40;99.90;;;;;;6085299;23;20417;-89
2022/02/13 09:12:10;;;;;;;4.43;3.50;;;4.70;99.90;;;;;;6099687;23;20009;-89
2022/02/13 09:14:41;;;;;;;6.07;3.05;;;4.80;99.90;;;;;;6106180;23;20349;-89
2022/02/13 09:17:07;;;;;;;4.53;2.75;;;4.90;99.90;;;;;;6126278;23;20028;-89
2022/02/13 09:19:35;;;;;;;3.17;1.98;;;5.10;99.90;;;;;;6125032;23;20021;-89
2022/02/13 09:22:02;;;;;;;4.40;3.35;;;5.10;99.90;;;;;;6101605;23;20017;-86
2022/02/13 09:24:27;;;;;;;10.45;2.92;;;5.40;99.90;;;;;;6101410;23;20075;-88
2022/02/13 09:26:53;;;;;;;5.70;2.85;;;5.60;99.90;;;;;;6099467;23;20044;-87
2022/02/13 09:29:18;;;;;;;3.85;2.25;;;5.60;99.90;;;;;;6102020;23;20815;-87
2022/02/13 09:31:44;;;;;;;4.40;2.40;;;5.70;99.90;;;;;;6100161;23;20009;-87
2022/02/13 09:34:25;;;;;;;4.90;2.40;;;5.80;99.90;;;;;;6104532;23;20041;-88
2022/02/13 09:36:56;;;;;;;4.85;2.85;;;6.00;99.90;;;;;;6092010;23;20384;-87
2022/02/13 09:39:23;;;;;;;4.45;2.55;;;6.00;99.90;;;;;;6101870;23;20028;-88
2022/02/13 09:41:49;;;;;;;2.72;1.90;;;6.10;99.90;;;;;;6101148;23;20013;-87
2022/02/13 09:44:15;;;;;;;2.20;1.33;;;6.30;99.90;;;;;;6088472;23;20012;-87
2022/02/13 09:46:48;;;;;;;5.68;3.22;;;6.40;99.90;;;;;;6150746;23;20013;-88
2022/02/13 09:49:18;;;;;;;5.53;2.97;;;6.40;99.90;;;;;;6101827;23;20137;-88
2022/02/13 09:51:46;;;;;;;6.18;2.88;;;6.50;99.90;;;;;;6102074;23;20021;-88
2022/02/13 09:54:11;;;;;;;3.92;2.70;;;6.70;99.90;;;;;;6103783;23;20033;-87
2022/02/13 09:56:39;;;;;;;5.07;2.70;;;7.00;99.90;;;;;;6102451;23;20016;-88
2022/02/13 09:59:06;;;;;;;3.38;2.33;;;7.20;99.90;;;;;;6099999;23;20055;-87
2022/02/13 10:01:46;;;;;;;6.80;3.72;;;7.70;98.70;;;;;;6102173;23;20028;-87
2022/02/13 10:04:17;;;;;;;5.38;2.65;;;7.60;99.90;;;;;;6103986;23;20009;-88
2022/02/13 10:06:43;;;;;;;4.32;2.75;;;7.40;99.50;;;;;;6101879;23;20013;-88
2022/02/13 10:09:09;;;;;;;5.93;2.75;;;7.50;99.90;;;;;;6104516;23;20017;-88
2022/02/13 10:11:39;;;;;;;3.70;2.35;;;7.80;99.90;;;;;;6077673;23;20013;-88
2022/02/13 10:14:14;;;;;;;5.60;3.28;;;8.10;98.50;;;;;;6112244;23;20413;-88
2022/02/13 10:16:50;;;;;;;6.07;3.00;;;8.10;98.20;;;;;;6090848;23;20185;-88
2022/02/13 10:19:20;;;;;;;6.55;3.33;;;8.20;99.90;;;;;;6100021;23;20441;-88
2022/02/13 10:21:46;;;;;;;3.70;2.63;;;8.20;99.90;;;;;;6098717;23;20013;-88
2022/02/13 10:24:31;;;;;;;5.95;3.03;;;8.40;98.10;;;;;;6099441;23;20025;-88
2022/02/13 10:26:59;;;;;;;5.38;3.05;;;8.30;99.90;;;;;;6109246;23;20225;-88
2022/02/13 10:29:32;;;;;;;4.28;1.98;;;8.40;99.90;;;;;;6105428;23;20009;-88
2022/02/13 10:32:22;;;;;;;3.33;1.45;;;8.80;96.20;;;;;;6100994;23;20449;-88
2022/02/13 10:35:06;;;;;;;5.55;2.78;;;8.90;94.70;;;;;;6122689;23;20023;-88
2022/02/13 10:37:55;;;;;;;4.80;2.08;;;8.60;98.10;;;;;;6148542;23;20099;-89
2022/02/13 10:40:24;;;;;;;4.13;2.75;;;8.90;96.40;;;;;;6087371;23;20027;-89
2022/02/13 10:43:09;;;;;;;2.15;1.65;;;9.00;93.50;;;;;;6088706;23;20014;-89
2022/02/13 10:45:39;;;;;;;3.05;1.58;;;9.20;93.00;;;;;;6100453;23;20482;-89
2022/02/13 10:48:06;;;;;;;3.83;2.50;;;9.20;94.90;;;;;;6085975;23;20021;-89
2022/02/13 10:50:39;;;;;;;3.40;2.17;;;9.30;93.50;;;;;;6108168;23;20020;-89
2022/02/13 10:53:05;;;;;;;4.28;2.65;;;9.30;93.90;;;;;;6062344;23;20059;-89
2022/02/13 10:55:33;;;;;;;4.70;2.13;;;9.50;90.50;;;;;;6121662;23;20497;-88
2022/02/13 10:57:58;;;;;;;4.25;2.35;;;9.60;91.00;;;;;;6078545;23;20021;-92
2022/02/13 11:01:04;;;;;;;2.08;1.23;;;9.60;91.20;;;;;;6088906;23;20017;-89
2022/02/13 11:03:34;;;;;;;5.50;2.35;;;9.60;91.20;;;;;;6116275;23;20044;-90
2022/02/13 11:06:11;;;;;;;7.95;3.00;;;9.50;91.90;;;;;;6052037;23;20410;-90
2022/02/13 11:08:50;;;;;;;3.42;1.55;;;9.80;90.00;;;;;;6119078;23;20009;-91
2022/02/13 11:11:24;;;;;;;3.08;1.13;;;9.90;90.00;;;;;;6100495;23;20462;-91
2022/02/13 11:13:55;;;;;;;4.18;2.10;;;9.70;91.40;;;;;;6072779;23;20036;-91
2022/02/13 11:19:50;;;;;;;3.42;2.47;;;9.80;88.40;;;;;;6115192;23;20025;-90
2022/02/13 11:22:23;;;;;;;2.90;1.50;;;9.90;91.60;;;;;;6025749;23;20044;-91
2022/02/13 11:28:26;;;;;;;3.92;2.33;;;9.90;90.20;;;;;;6023049;23;20011;-91
2022/02/13 11:30:56;;;;;;;5.47;2.78;;;10.30;90.70;;;;;;6125736;23;20017;-91
2022/02/13 11:33:37;;;;;;;3.92;1.88;;;10.20;88.20;;;;;;6098869;23;20060;-90
2022/02/13 11:36:12;;;;;;;4.25;2.75;;;10.30;86.30;;;;;;6146739;23;20069;-90
2022/02/13 11:38:40;;;;;;;5.40;2.78;;;10.40;79.70;;;;;;6073914;23;20005;-91
2022/02/13 11:41:11;;;;;;;3.92;2.35;;;10.40;84.50;;;;;;6134415;23;20024;-91
2022/02/13 11:47:51;;;;;;;4.85;2.25;;;10.70;86.90;;;;;;6178582;23;20118;-91
2022/02/13 11:54:03;;;;;;;3.72;2.03;;;10.70;85.30;;;;;;6117405;23;19976;-91
2022/02/13 11:56:29;;;;;;;5.20;2.45;;;10.70;80.60;;;;;;6103278;23;20254;-91
2022/02/13 11:58:59;;;;;;;6.25;2.40;;;10.80;81.10;;;;;;6071842;23;20319;-90
2022/02/13 12:05:12;;;;;;;6.18;2.30;;;11.10;82.70;;;;;;6162227;23;20020;-91
2022/02/13 12:07:58;;;;;;;4.55;2.72;;;11.00;79.10;;;;;;6109765;23;20056;-90
2022/02/13 12:13:29;;;;;;;7.40;2.85;;;10.90;82.50;;;;;;6128365;23;20060;-91
2022/02/13 12:15:57;;;;;;;5.45;2.08;;;11.00;78.40;;;;;;6100177;23;20016;-91
2022/02/13 12:18:23;;;;;;;2.75;1.67;;;11.00;75.20;;;;;;6104543;23;20005;-90
2022/02/13 12:27:57;;;;;;;2.30;1.55;;;10.80;77.50;;;;;;6185068;23;20019;-91
2022/02/13 12:41:30;;;;;;;5.05;2.03;;;10.90;80.70;;;;;;6154743;23;20386;-91
2022/02/13 12:43:56;;;;;;;4.90;2.70;;;11.00;82.00;;;;;;6087249;23;20020;-92
2022/02/13 12:46:22;;;;;;;3.90;2.22;;;11.00;81.10;;;;;;6061829;23;20017;-92
2022/02/13 12:48:51;;;;;;;1.63;1.23;;;11.00;82.70;;;;;;6030281;23;20034;-91
2022/02/13 12:51:27;;;;;;;3.95;2.65;;;11.10;80.90;;;;;;6097970;23;20117;-91
2022/02/13 12:53:55;;;;;;;5.55;2.55;;;11.40;77.70;;;;;;6044646;23;20044;-90
2022/02/13 12:56:26;;;;;;;5.57;2.78;;;11.50;78.40;;;;;;6077938;23;20006;-91
2022/02/13 12:58:54;;;;;;;5.32;2.08;;;11.50;76.70;;;;;;6098208;23;20034;-91
2022/02/13 13:01:32;;;;;;;4.07;1.88;;;11.60;77.40;;;;;;6046734;23;20017;-90
2022/02/13 13:04:01;;;;;;;3.63;2.28;;;11.60;78.60;;;;;;6058415;23;20355;-91
2022/02/13 13:06:30;;;;;;;4.82;1.88;;;11.50;79.30;;;;;;6075299;23;20048;-91
2022/02/13 13:08:59;;;;;;;3.33;2.05;;;11.50;80.60;;;;;;6060688;23;20009;-90
2022/02/13 13:11:31;;;;;;;4.07;2.20;;;11.60;77.30;;;;;;6064987;23;20092;-91
2022/02/13 13:14:07;;;;;;;4.25;2.53;;;11.60;83.90;;;;;;6060665;23;20024;-90
2022/02/13 13:16:35;;;;;;;5.10;1.88;;;11.70;78.10;;;;;;6072856;23;20013;-92
2022/02/13 13:19:01;;;;;;;4.40;2.80;;;11.90;81.10;;;;;;6052783;23;20021;-91
2022/02/13 13:21:38;;;;;;;5.28;2.85;;;11.90;74.50;;;;;;6045617;23;20037;-91
2022/02/13 13:24:08;;;;;;;4.90;2.60;;;11.90;82.10;;;;;;6107654;23;20013;-90
2022/02/13 13:27:00;;;;;;;5.90;2.70;;;11.90;75.70;;;;;;6099948;23;20477;-91
2022/02/13 13:29:43;;;;;;;6.45;2.00;;;12.10;80.20;;;;;;6080193;23;20013;-91
2022/02/13 13:32:15;;;;;;;3.25;1.88;;;12.10;79.70;;;;;;6098672;23;20483;-91
2022/02/13 13:34:51;;;;;;;5.75;2.42;;;12.10;76.20;;;;;;6075810;23;20108;-90
2022/02/13 13:37:43;;;;;;;2.75;1.30;;;12.20;80.90;;;;;;6107384;23;20324;-91
2022/02/13 13:40:12;;;;;;;3.25;2.10;;;12.00;79.40;;;;;;6056957;23;20026;-92
2022/02/13 13:42:56;;;;;;;6.85;2.38;;;12.20;82.20;;;;;;6064969;23;20038;-92